Time;durP1;ratioP1;P1;durP2;ratioP2;P2;SDS_P1;SDS_P2;PMS_P1;PMS_P2;Temp;Humidity;BMP_temperature;BMP_pressure;BME280_temperature;BME280_humidity;BME280_pressure;Samples;Min_cycle;Max_cycle;Signal;HPM_P1;HPM_P2
2021/04/27 00:02:15;;;;;;;6.30;3.50;;;-0.60;99.90;;;;;;5011033;28;20037;-82
2021/04/27 00:04:41;;;;;;;8.73;3.03;;;-0.60;99.90;;;;;;5010931;28;20607;-82
2021/04/27 00:07:06;;;;;;;11.35;3.45;;;-0.60;99.90;;;;;;5014820;28;20041;-82
2021/04/27 00:09:32;;;;;;;6.40;3.35;;;-0.50;99.90;;;;;;5014757;28;20026;-82
2021/04/27 00:11:58;;;;;;;7.55;3.40;;;-0.50;99.90;;;;;;5015967;28;20026;-82
2021/04/27 00:14:23;;;;;;;7.00;3.85;;;-0.50;99.90;;;;;;5014082;28;20022;-82
2021/04/27 00:16:49;;;;;;;8.38;3.63;;;-0.50;99.90;;;;;;5014575;28;20065;-82
2021/04/27 00:19:14;;;;;;;8.10;3.60;;;-0.50;99.90;;;;;;5013355;28;20022;-82
2021/04/27 00:21:40;;;;;;;8.20;4.07;;;-0.60;99.90;;;;;;5014667;28;20037;-82
2021/04/27 00:24:06;;;;;;;6.18;3.65;;;-0.60;99.90;;;;;;5013871;28;20496;-82
2021/04/27 00:26:32;;;;;;;5.90;3.50;;;-0.70;99.90;;;;;;5014461;28;20022;-83
2021/04/27 00:28:58;;;;;;;9.00;3.45;;;-0.80;99.90;;;;;;5014362;28;20083;-82
2021/04/27 00:31:23;;;;;;;7.43;3.22;;;-0.80;99.90;;;;;;5015276;28;20481;-82
2021/04/27 00:33:49;;;;;;;8.52;3.67;;;-0.90;99.90;;;;;;5013631;28;20413;-82
2021/04/27 00:36:14;;;;;;;7.47;3.33;;;-0.90;99.90;;;;;;5029073;28;20406;-82
2021/04/27 00:38:41;;;;;;;7.88;3.13;;;-0.90;99.90;;;;;;5032657;28;20024;-82
2021/04/27 00:41:09;;;;;;;5.93;3.05;;;-0.90;99.90;;;;;;5025102;28;20034;-82
2021/04/27 00:43:35;;;;;;;6.50;3.72;;;-1.00;99.90;;;;;;5012864;28;20022;-82
2021/04/27 00:46:00;;;;;;;6.80;3.83;;;-1.00;99.90;;;;;;5013520;28;20473;-82
2021/04/27 00:48:26;;;;;;;8.75;4.03;;;-0.80;99.90;;;;;;5012602;28;20068;-82
2021/04/27 00:50:51;;;;;;;9.55;4.03;;;-0.80;99.90;;;;;;5025564;28;20073;-83
2021/04/27 00:53:17;;;;;;;13.07;4.50;;;-0.80;99.90;;;;;;5017574;28;20030;-82
2021/04/27 00:55:43;;;;;;;11.43;4.32;;;-0.70;99.90;;;;;;5013369;28;20018;-82
2021/04/27 00:58:09;;;;;;;6.10;3.70;;;-0.80;99.90;;;;;;5011861;28;20026;-82
2021/04/27 01:00:42;;;;;;;8.43;3.75;;;-0.80;99.90;;;;;;5012648;28;20056;-82
2021/04/27 01:03:08;;;;;;;8.65;3.92;;;-0.90;99.90;;;;;;5013777;28;20064;-82
2021/04/27 01:05:38;;;;;;;7.75;4.10;;;-0.90;99.90;;;;;;5021214;28;20041;-82
2021/04/27 01:08:17;;;;;;;11.60;4.28;;;-1.00;99.90;;;;;;5032006;28;20529;-82
2021/04/27 01:11:04;;;;;;;6.97;3.60;;;-1.00;99.90;;;;;;5028084;28;20409;-82
2021/04/27 01:14:05;;;;;;;10.23;4.40;;;-1.10;99.90;;;;;;5013322;28;20026;-82
2021/04/27 01:16:38;;;;;;;7.68;3.92;;;-1.10;99.90;;;;;;4979842;28;20149;-82
2021/04/27 01:19:07;;;;;;;7.95;3.83;;;-1.20;99.90;;;;;;5012186;28;20029;-81
2021/04/27 01:21:33;;;;;;;7.03;3.75;;;-1.30;99.90;;;;;;5013379;28;20053;-82
2021/04/27 01:24:03;;;;;;;8.73;4.53;;;-1.30;99.90;;;;;;5012682;28;20072;-82
2021/04/27 01:26:34;;;;;;;7.82;4.30;;;-1.40;99.90;;;;;;5013372;28;20030;-82
2021/04/27 01:29:01;;;;;;;7.72;3.78;;;-1.30;99.90;;;;;;5011772;28;20054;-81
2021/04/27 01:31:27;;;;;;;7.95;4.85;;;-1.40;99.90;;;;;;5026544;28;20033;-82
2021/04/27 01:33:53;;;;;;;5.55;4.20;;;-1.40;99.90;;;;;;5030890;28;20048;-82
2021/04/27 01:36:19;;;;;;;7.57;4.18;;;-1.50;99.90;;;;;;5015594;28;20033;-82
2021/04/27 01:38:44;;;;;;;10.55;4.72;;;-1.50;99.90;;;;;;5013080;28;20018;-81
2021/04/27 01:41:10;;;;;;;10.88;4.32;;;-1.60;99.90;;;;;;5013157;28;20581;-81
2021/04/27 01:43:36;;;;;;;7.28;4.30;;;-1.60;99.90;;;;;;5011327;28;20030;-81
2021/04/27 01:46:05;;;;;;;6.93;4.07;;;-1.70;99.90;;;;;;5012505;28;20034;-81
2021/04/27 01:48:33;;;;;;;7.32;4.07;;;-1.70;99.90;;;;;;5012752;28;20030;-81
2021/04/27 01:50:59;;;;;;;6.13;4.43;;;-1.70;99.90;;;;;;5023156;28;20025;-81
2021/04/27 01:53:24;;;;;;;10.40;4.38;;;-1.80;99.90;;;;;;5029276;28;20029;-81
2021/04/27 01:55:50;;;;;;;8.98;3.75;;;-1.80;99.90;;;;;;5030550;28;20124;-81
2021/04/27 01:58:17;;;;;;;6.55;4.03;;;-1.80;99.90;;;;;;5032190;28;20064;-81
2021/04/27 02:00:43;;;;;;;8.60;4.00;;;-1.80;99.90;;;;;;5023089;28;20025;-81
2021/04/27 02:03:09;;;;;;;6.43;4.00;;;-1.90;99.90;;;;;;5012745;28;20041;-81
2021/04/27 02:05:35;;;;;;;10.73;4.20;;;-1.90;99.90;;;;;;5021915;28;20401;-81
2021/04/27 02:08:01;;;;;;;10.15;5.05;;;-1.90;99.90;;;;;;5032298;28;20505;-81
2021/04/27 02:10:27;;;;;;;16.25;4.70;;;-1.90;99.90;;;;;;5027833;28;20029;-81
2021/04/27 02:12:56;;;;;;;6.53;4.00;;;-1.90;99.90;;;;;;5012362;28;20049;-81
2021/04/27 02:15:23;;;;;;;8.88;4.65;;;-1.90;99.90;;;;;;5011926;28;20032;-81
2021/04/27 02:18:02;;;;;;;11.77;5.38;;;-1.90;99.90;;;;;;5010877;28;20044;-81
2021/04/27 02:20:29;;;;;;;10.60;4.95;;;-1.80;99.90;;;;;;5010078;28;20033;-81
2021/04/27 02:22:57;;;;;;;13.23;5.45;;;-1.80;99.90;;;;;;5012013;28;20052;-81
2021/04/27 02:25:23;;;;;;;10.43;4.82;;;-1.70;99.90;;;;;;5011617;28;20113;-81
2021/04/27 02:27:50;;;;;;;24.10;8.48;;;-1.80;99.90;;;;;;5010472;28;20116;-81
2021/04/27 02:30:18;;;;;;;9.35;4.60;;;-1.80;99.90;;;;;;5011321;28;20026;-81
2021/04/27 02:32:45;;;;;;;7.82;4.85;;;-1.80;99.90;;;;;;5012189;28;20026;-81
2021/04/27 02:35:12;;;;;;;9.82;5.28;;;-1.90;99.90;;;;;;5017213;28;20071;-81
2021/04/27 02:37:41;;;;;;;9.35;4.60;;;-1.90;99.90;;;;;;5030322;28;20468;-81
2021/04/27 02:40:08;;;;;;;8.50;4.80;;;-1.90;99.90;;;;;;5031465;28;20063;-81
2021/04/27 02:42:35;;;;;;;15.32;5.80;;;-2.00;99.90;;;;;;5007334;28;20505;-82
2021/04/27 02:45:02;;;;;;;11.13;5.50;;;-2.00;99.90;;;;;;4991738;28;20088;-81
2021/04/27 02:47:27;;;;;;;12.43;5.60;;;-2.00;99.90;;;;;;4992164;28;20084;-81
2021/04/27 02:49:53;;;;;;;12.50;4.78;;;-2.00;99.90;;;;;;5015148;28;20502;-81
2021/04/27 02:52:18;;;;;;;8.25;5.22;;;-2.00;99.90;;;;;;5022085;28;20056;-81
2021/04/27 02:54:44;;;;;;;10.20;5.07;;;-2.00;99.90;;;;;;5030954;28;20488;-81
2021/04/27 02:57:09;;;;;;;6.97;5.18;;;-2.10;99.90;;;;;;5031489;28;20075;-81
2021/04/27 02:59:35;;;;;;;7.55;5.03;;;-2.10;99.90;;;;;;5031292;28;20513;-81
2021/04/27 03:02:01;;;;;;;7.80;4.95;;;-2.10;99.90;;;;;;5011563;28;20034;-81
2021/04/27 03:04:26;;;;;;;8.40;5.30;;;-2.10;99.90;;;;;;5009622;28;20029;-80
2021/04/27 03:06:52;;;;;;;17.58;5.13;;;-2.20;99.90;;;;;;5011621;28;20029;-81
2021/04/27 03:09:17;;;;;;;10.57;5.88;;;-2.20;99.90;;;;;;5010548;28;20036;-81
2021/04/27 03:11:43;;;;;;;8.55;5.40;;;-2.20;99.90;;;;;;5024425;28;20038;-81
2021/04/27 03:14:08;;;;;;;10.63;4.88;;;-2.30;99.90;;;;;;5030726;28;20025;-81
2021/04/27 03:16:34;;;;;;;6.38;4.43;;;-2.40;99.90;;;;;;5031409;28;20028;-81
2021/04/27 03:19:00;;;;;;;10.68;6.00;;;-2.40;99.90;;;;;;5031314;28;20494;-81
2021/04/27 03:21:25;;;;;;;8.23;5.00;;;-2.40;99.90;;;;;;5013372;28;20410;-81
2021/04/27 03:23:51;;;;;;;7.50;5.15;;;-2.50;99.90;;;;;;5010909;28;20109;-80
2021/04/27 03:26:16;;;;;;;11.88;5.53;;;-2.50;99.90;;;;;;5011631;28;20041;-80
2021/04/27 03:28:42;;;;;;;9.05;5.53;;;-2.50;99.90;;;;;;5011332;28;20076;-81
2021/04/27 03:31:08;;;;;;;12.43;6.70;;;-2.40;99.90;;;;;;5021026;28;20480;-80
2021/04/27 03:33:34;;;;;;;9.27;5.32;;;-2.50;99.90;;;;;;5031225;28;20045;-81
2021/04/27 03:36:00;;;;;;;11.65;5.00;;;-2.50;99.90;;;;;;5029705;28;20087;-81
2021/04/27 03:38:25;;;;;;;9.82;5.22;;;-2.50;99.90;;;;;;5030156;28;20030;-81
2021/04/27 03:40:52;;;;;;;8.57;5.28;;;-2.50;99.90;;;;;;5033465;28;20048;-81
2021/04/27 03:43:17;;;;;;;9.10;4.95;;;-2.50;99.90;;;;;;5035096;28;20025;-81
2021/04/27 03:45:43;;;;;;;10.45;5.68;;;-2.50;99.90;;;;;;5033207;28;20401;-81
2021/04/27 03:48:15;;;;;;;8.43;5.88;;;-2.60;99.90;;;;;;5035163;28;20048;-80
2021/04/27 03:50:41;;;;;;;8.30;5.47;;;-2.60;99.90;;;;;;5026415;28;20033;-80
2021/04/27 03:53:07;;;;;;;12.93;6.45;;;-2.60;99.90;;;;;;5020300;28;20022;-80
2021/04/27 03:55:34;;;;;;;10.10;5.28;;;-2.60;99.90;;;;;;5014417;28;20489;-80
2021/04/27 03:57:59;;;;;;;9.93;5.22;;;-2.60;99.90;;;;;;5014899;28;20026;-80
2021/04/27 04:00:25;;;;;;;10.00;5.00;;;-2.60;99.90;;;;;;5015155;28;20125;-80
2021/04/27 04:02:51;;;;;;;11.13;6.18;;;-2.60;99.90;;;;;;5014976;28;20076;-80
2021/04/27 04:05:17;;;;;;;8.35;5.80;;;-2.60;99.90;;;;;;5019526;28;20037;-81
2021/04/27 04:07:42;;;;;;;9.23;5.13;;;-2.60;99.90;;;;;;5033320;28;20031;-80
2021/04/27 04:10:10;;;;;;;9.82;6.20;;;-2.50;99.90;;;;;;5033900;28;20436;-80
2021/04/27 04:12:37;;;;;;;7.38;5.43;;;-2.60;99.90;;;;;;5013477;28;20028;-80
2021/04/27 04:15:04;;;;;;;11.18;5.35;;;-2.60;99.90;;;;;;5012826;28;20032;-81
2021/04/27 04:17:30;;;;;;;9.35;5.45;;;-2.60;99.90;;;;;;5014647;28;20018;-80
2021/04/27 04:19:55;;;;;;;7.45;5.35;;;-2.60;99.90;;;;;;5014719;28;20030;-80
2021/04/27 04:22:21;;;;;;;10.38;6.55;;;-2.50;99.90;;;;;;5013332;28;20029;-80
2021/04/27 04:24:46;;;;;;;8.95;5.65;;;-2.50;99.90;;;;;;5013838;28;20125;-80
2021/04/27 04:27:12;;;;;;;12.52;5.25;;;-2.50;99.90;;;;;;5014410;28;20030;-80
2021/04/27 04:29:38;;;;;;;9.48;5.28;;;-2.50;99.90;;;;;;5014548;28;20040;-80
2021/04/27 04:32:04;;;;;;;10.07;6.05;;;-2.50;99.90;;;;;;5032704;28;20512;-80
2021/04/27 04:34:29;;;;;;;11.07;5.63;;;-2.40;99.90;;;;;;5031341;28;20030;-81
2021/04/27 04:36:55;;;;;;;8.32;4.50;;;-2.40;99.90;;;;;;5014223;28;20033;-80
2021/04/27 04:39:21;;;;;;;10.38;5.93;;;-2.40;99.90;;;;;;5014276;28;20157;-80
2021/04/27 04:41:46;;;;;;;10.25;5.68;;;-2.30;99.90;;;;;;5013141;28;20091;-80
2021/04/27 04:44:12;;;;;;;11.75;5.65;;;-2.30;99.90;;;;;;5013522;28;20649;-80
2021/04/27 04:46:37;;;;;;;11.43;6.30;;;-2.20;99.90;;;;;;5014051;28;20022;-80
2021/04/27 04:49:04;;;;;;;10.38;6.20;;;-2.10;99.90;;;;;;5013860;28;20034;-80
2021/04/27 04:51:29;;;;;;;14.32;5.78;;;-2.00;99.90;;;;;;5029002;28;20026;-80
2021/04/27 04:53:55;;;;;;;17.10;5.30;;;-1.90;99.90;;;;;;5032837;28;20025;-80
2021/04/27 04:56:21;;;;;;;9.77;5.55;;;-1.80;99.90;;;;;;5033626;28;20028;-80
2021/04/27 04:58:47;;;;;;;16.00;4.63;;;-1.70;99.90;;;;;;5033638;28;20022;-81
2021/04/27 05:01:12;;;;;;;8.25;5.53;;;-1.60;99.90;;;;;;5020525;28;20033;-80
2021/04/27 05:03:42;;;;;;;7.35;4.57;;;-1.50;99.90;;;;;;5018290;28;20444;-81
2021/04/27 05:06:11;;;;;;;8.25;4.60;;;-1.40;99.90;;;;;;5017981;28;20064;-80
2021/04/27 05:08:43;;;;;;;6.55;3.55;;;-1.20;99.90;;;;;;5012367;28;20030;-80
2021/04/27 05:11:09;;;;;;;8.13;4.90;;;-1.10;99.90;;;;;;5020131;28;20026;-81
2021/04/27 05:13:34;;;;;;;8.93;5.10;;;-1.00;99.90;;;;;;5033289;28;20367;-81
2021/04/27 05:16:02;;;;;;;9.80;5.35;;;-0.80;99.90;;;;;;5031520;28;20021;-81
2021/04/27 05:18:28;;;;;;;8.13;4.75;;;-0.70;99.90;;;;;;5032042;28;20108;-81
2021/04/27 05:20:54;;;;;;;6.90;4.10;;;-0.50;99.90;;;;;;5020994;28;20053;-81
2021/04/27 05:23:22;;;;;;;10.82;5.15;;;-0.40;99.90;;;;;;5012127;28;20065;-81
2021/04/27 05:25:48;;;;;;;9.20;4.65;;;-0.20;99.90;;;;;;5011488;28;20084;-81
2021/04/27 05:28:14;;;;;;;9.05;4.60;;;0.00;99.90;;;;;;5013365;28;20165;-81
2021/04/27 05:30:40;;;;;;;8.25;4.13;;;0.20;99.90;;;;;;5019842;28;20541;-81
2021/04/27 05:33:05;;;;;;;12.82;4.82;;;0.30;99.90;;;;;;5033086;28;20029;-81
2021/04/27 05:35:31;;;;;;;9.63;4.38;;;0.40;99.90;;;;;;5023308;28;20022;-81
2021/04/27 05:37:57;;;;;;;9.43;3.95;;;0.60;99.90;;;;;;5013173;28;20153;-81
2021/04/27 05:40:22;;;;;;;13.07;4.03;;;0.70;99.90;;;;;;5011888;28;20037;-81
2021/04/27 05:42:48;;;;;;;8.40;4.18;;;0.90;99.90;;;;;;5013092;28;20101;-81
2021/04/27 05:45:13;;;;;;;8.77;4.50;;;1.10;99.90;;;;;;5012426;28;20474;-82
2021/04/27 05:47:39;;;;;;;10.73;4.55;;;1.30;99.90;;;;;;5012807;28;20040;-82
2021/04/27 05:50:06;;;;;;;8.25;4.45;;;1.50;99.90;;;;;;5017659;28;20084;-83
2021/04/27 05:52:32;;;;;;;10.02;4.63;;;1.80;99.90;;;;;;5022972;28;20022;-82
2021/04/27 05:54:57;;;;;;;9.15;4.10;;;2.10;99.90;;;;;;5012224;28;20106;-81
2021/04/27 05:57:23;;;;;;;10.88;4.13;;;2.20;99.90;;;;;;5012874;28;20029;-82
2021/04/27 05:59:49;;;;;;;7.82;4.35;;;2.40;99.90;;;;;;5012897;28;20034;-82
2021/04/27 06:02:14;;;;;;;5.03;3.35;;;2.60;99.90;;;;;;5005902;28;20034;-81
2021/04/27 06:04:40;;;;;;;12.93;3.40;;;2.80;99.90;;;;;;5019555;28;20053;-82
2021/04/27 06:07:08;;;;;;;7.18;3.80;;;3.00;99.90;;;;;;5012413;28;20026;-82
2021/04/27 06:09:34;;;;;;;6.38;3.17;;;3.30;99.90;;;;;;5012407;28;20024;-82
2021/04/27 06:12:00;;;;;;;8.02;2.60;;;3.50;99.90;;;;;;5025711;28;20112;-82
2021/04/27 06:14:25;;;;;;;5.25;2.67;;;3.80;99.90;;;;;;5031631;28;20097;-83
2021/04/27 06:16:51;;;;;;;4.65;2.85;;;4.00;99.90;;;;;;5032103;28;20021;-82
2021/04/27 06:19:17;;;;;;;4.35;2.72;;;4.30;99.90;;;;;;5032474;28;20021;-83
2021/04/27 06:21:43;;;;;;;3.90;2.50;;;4.50;99.90;;;;;;5013357;28;20485;-83
2021/04/27 06:24:09;;;;;;;4.65;2.35;;;4.80;99.90;;;;;;5011547;28;20108;-82
2021/04/27 06:26:35;;;;;;;6.03;2.80;;;5.00;99.90;;;;;;5010999;28;20026;-83
2021/04/27 06:29:01;;;;;;;5.57;2.83;;;5.20;99.90;;;;;;5012214;28;20788;-82
2021/04/27 06:31:26;;;;;;;4.68;2.70;;;5.40;99.90;;;;;;5025027;28;20033;-83
2021/04/27 06:33:52;;;;;;;6.97;2.30;;;5.60;99.90;;;;;;5029909;28;20829;-82
2021/04/27 06:36:17;;;;;;;8.18;2.65;;;5.80;99.90;;;;;;5027925;28;20024;-83
2021/04/27 06:38:44;;;;;;;3.35;2.03;;;6.00;99.90;;;;;;5030542;28;20032;-83
2021/04/27 06:41:10;;;;;;;4.97;2.10;;;6.20;99.90;;;;;;5023151;28;20032;-83
2021/04/27 06:43:36;;;;;;;9.63;2.80;;;6.40;99.90;;;;;;5011720;28;20104;-83
2021/04/27 06:46:03;;;;;;;4.38;2.20;;;6.70;99.90;;;;;;5011651;28;20559;-83
2021/04/27 06:48:29;;;;;;;5.88;2.47;;;6.90;99.90;;;;;;5011720;28;20084;-83
2021/04/27 06:50:55;;;;;;;4.25;2.70;;;7.10;99.90;;;;;;5011054;28;20030;-82
2021/04/27 06:53:20;;;;;;;7.95;2.55;;;7.40;99.90;;;;;;5017367;28;20061;-83
2021/04/27 06:55:47;;;;;;;6.47;2.38;;;7.60;99.90;;;;;;5029505;28;20044;-82
2021/04/27 06:58:14;;;;;;;4.53;2.28;;;7.80;99.90;;;;;;5031403;28;20393;-83
2021/04/27 07:00:40;;;;;;;4.75;2.22;;;8.00;99.90;;;;;;5023067;28;20030;-82
2021/04/27 07:03:06;;;;;;;6.60;2.92;;;8.20;99.90;;;;;;5017975;28;20061;-82
2021/04/27 07:05:32;;;;;;;4.47;2.30;;;8.30;99.90;;;;;;5019545;28;20036;-82
2021/04/27 07:07:58;;;;;;;7.93;2.45;;;8.40;99.90;;;;;;5031338;28;20464;-83
2021/04/27 07:10:24;;;;;;;4.65;2.08;;;8.60;99.90;;;;;;5029929;28;20128;-82
2021/04/27 07:12:50;;;;;;;6.78;2.35;;;8.80;99.90;;;;;;5016635;28;20029;-83
2021/04/27 07:15:17;;;;;;;6.88;2.10;;;8.90;99.90;;;;;;5014375;28;20037;-83
2021/04/27 07:17:42;;;;;;;2.75;1.70;;;9.00;99.90;;;;;;5015737;28;20018;-82
2021/04/27 07:20:09;;;;;;;2.83;1.95;;;9.20;99.90;;;;;;5015724;28;20524;-83
2021/04/27 07:22:34;;;;;;;3.47;1.95;;;9.30;99.90;;;;;;5014526;28;20056;-82
2021/04/27 07:25:00;;;;;;;3.95;1.80;;;9.50;99.90;;;;;;5014859;28;20061;-82
2021/04/27 07:27:26;;;;;;;5.95;2.55;;;9.50;99.90;;;;;;5015551;28;20029;-81
2021/04/27 07:29:52;;;;;;;4.20;2.15;;;9.60;99.90;;;;;;5014186;28;20033;-82
2021/04/27 07:32:17;;;;;;;5.25;1.95;;;9.80;99.90;;;;;;5033895;28;20022;-83
2021/04/27 07:34:43;;;;;;;7.78;2.40;;;10.20;99.90;;;;;;5032126;28;20028;-83
2021/04/27 07:37:09;;;;;;;6.85;2.38;;;10.20;99.90;;;;;;5015162;28;20075;-83
2021/04/27 07:39:35;;;;;;;2.75;1.58;;;10.20;99.90;;;;;;5015386;28;20018;-82
2021/04/27 07:42:01;;;;;;;10.38;2.15;;;10.30;99.90;;;;;;5014244;28;20398;-82
2021/04/27 07:44:26;;;;;;;3.38;1.67;;;10.10;99.90;;;;;;5015038;28;20431;-83
2021/04/27 07:46:52;;;;;;;6.45;2.08;;;10.10;99.90;;;;;;5014453;28;20030;-81
2021/04/27 07:49:18;;;;;;;9.23;1.88;;;10.30;99.90;;;;;;5009985;28;20029;-83
2021/04/27 07:51:43;;;;;;;13.30;1.92;;;10.50;99.90;;;;;;5013526;28;20040;-82
2021/04/27 07:54:09;;;;;;;3.63;1.90;;;10.60;99.90;;;;;;5014352;28;20040;-82
2021/04/27 07:56:35;;;;;;;5.00;1.60;;;10.80;99.90;;;;;;5013867;28;20496;-82
2021/04/27 07:59:03;;;;;;;3.17;1.63;;;11.00;99.90;;;;;;5013619;28;20030;-82
2021/04/27 08:01:29;;;;;;;5.47;2.40;;;10.90;99.90;;;;;;5013583;28;20025;-83
2021/04/27 08:03:55;;;;;;;6.18;1.65;;;11.00;99.90;;;;;;5013110;28;20056;-82
2021/04/27 08:06:21;;;;;;;10.32;1.65;;;11.10;99.90;;;;;;5013516;28;20022;-83
2021/04/27 08:08:46;;;;;;;5.72;2.25;;;11.30;99.90;;;;;;5013253;28;20032;-82
2021/04/27 08:11:12;;;;;;;4.07;1.80;;;11.40;99.90;;;;;;5013451;28;20088;-81
2021/04/27 08:13:38;;;;;;;3.95;2.00;;;11.60;99.90;;;;;;5013143;28;20030;-81
2021/04/27 08:16:07;;;;;;;19.08;1.63;;;11.60;98.10;;;;;;5013237;28;20114;-82
2021/04/27 08:18:36;;;;;;;2.67;1.23;;;11.70;99.20;;;;;;5013188;28;20120;-81
2021/04/27 08:21:02;;;;;;;3.17;1.50;;;11.90;98.10;;;;;;5013373;28;20026;-83
2021/04/27 08:23:27;;;;;;;7.82;1.80;;;11.90;95.90;;;;;;5014397;28;20149;-82
2021/04/27 08:25:53;;;;;;;2.63;1.55;;;12.10;93.40;;;;;;5011923;28;20068;-81
2021/04/27 08:28:18;;;;;;;3.78;1.55;;;12.20;95.20;;;;;;5013236;28;20057;-81
2021/04/27 08:30:44;;;;;;;5.78;1.90;;;12.50;98.50;;;;;;5012845;28;20029;-82
2021/04/27 08:33:10;;;;;;;3.85;1.38;;;12.60;94.30;;;;;;5013080;28;20026;-81
2021/04/27 08:35:36;;;;;;;1.08;0.98;;;12.80;93.90;;;;;;5013566;28;20033;-82
2021/04/27 08:38:01;;;;;;;1.92;1.40;;;12.80;83.60;;;;;;5012808;28;20401;-81
2021/04/27 08:40:27;;;;;;;4.15;1.38;;;12.70;82.40;;;;;;5015100;28;20506;-83
2021/04/27 08:42:52;;;;;;;5.35;1.10;;;12.50;74.70;;;;;;5012996;28;20174;-88
2021/04/27 08:45:19;;;;;;;1.95;1.52;;;12.50;84.40;;;;;;5017720;28;20033;-82
2021/04/27 08:47:46;;;;;;;5.95;2.38;;;12.60;81.70;;;;;;5000070;28;20376;-86
2021/04/27 08:50:14;;;;;;;5.72;1.80;;;12.50;82.40;;;;;;5005492;28;20076;-85
2021/04/27 08:52:40;;;;;;;2.47;1.42;;;12.80;90.80;;;;;;4993514;28;20026;-82
2021/04/27 08:55:07;;;;;;;3.58;1.70;;;12.90;84.60;;;;;;4995341;28;20101;-83
2021/04/27 08:57:35;;;;;;;3.53;1.30;;;13.00;88.20;;;;;;4992574;28;20031;-85
2021/04/27 09:00:03;;;;;;;4.05;1.27;;;13.00;78.90;;;;;;5002918;28;20141;-82
2021/04/27 09:02:30;;;;;;;10.77;2.05;;;13.00;78.40;;;;;;5006064;28;20026;-83
2021/04/27 09:04:56;;;;;;;7.07;1.50;;;13.10;80.50;;;;;;4993163;28;20035;-83
2021/04/27 09:07:24;;;;;;;4.82;1.40;;;13.40;84.60;;;;;;4998002;28;20121;-81
2021/04/27 09:09:55;;;;;;;3.00;1.65;;;13.70;86.50;;;;;;5002832;28;20041;-83
2021/04/27 09:12:28;;;;;;;5.50;1.10;;;13.90;81.90;;;;;;5006249;28;20026;-83
2021/04/27 09:14:59;;;;;;;2.08;1.40;;;14.20;80.10;;;;;;4997259;28;20627;-81
2021/04/27 09:17:27;;;;;;;4.10;1.50;;;13.90;73.70;;;;;;5002167;28;20038;-81
2021/04/27 09:19:55;;;;;;;8.02;1.38;;;13.90;75.10;;;;;;4991387;28;20030;-82
2021/04/27 09:22:22;;;;;;;5.80;1.63;;;14.20;80.10;;;;;;5002047;28;20472;-83
2021/04/27 09:24:51;;;;;;;2.28;1.20;;;14.40;78.80;;;;;;4992428;28;20031;-82
2021/04/27 09:27:48;;;;;;;3.05;1.65;;;14.50;74.60;;;;;;5003519;28;20497;-82
2021/04/27 09:30:23;;;;;;;4.18;1.65;;;14.50;69.90;;;;;;4994050;28;20042;-82
2021/04/27 09:33:00;;;;;;;3.22;1.50;;;14.70;75.50;;;;;;4990747;28;20027;-82
2021/04/27 09:35:41;;;;;;;4.03;1.40;;;14.90;68.90;;;;;;4997391;28;20034;-82
2021/04/27 09:38:17;;;;;;;4.90;1.23;;;14.90;73.70;;;;;;5004912;28;20030;-83
2021/04/27 09:40:43;;;;;;;4.38;1.60;;;14.90;72.60;;;;;;5001288;28;20094;-82
2021/04/27 09:43:09;;;;;;;3.13;1.65;;;14.80;68.00;;;;;;4992595;28;20030;-82
2021/04/27 09:45:42;;;;;;;5.07;1.40;;;14.70;67.90;;;;;;4998081;28;20029;-82
2021/04/27 09:48:08;;;;;;;3.10;1.50;;;14.70;69.30;;;;;;4992545;28;20064;-81
2021/04/27 09:50:34;;;;;;;3.28;1.33;;;14.70;69.00;;;;;;5004212;28;20040;-83
2021/04/27 09:53:01;;;;;;;4.38;1.30;;;15.00;76.40;;;;;;5003466;28;20026;-81
2021/04/27 09:55:33;;;;;;;3.97;1.50;;;15.00;69.20;;;;;;4997071;28;20026;-80
2021/04/27 09:57:59;;;;;;;2.22;1.20;;;15.00;65.50;;;;;;4989205;28;20083;-82
2021/04/27 10:00:45;;;;;;;11.35;1.65;;;15.30;64.90;;;;;;5002417;28;20033;-82
2021/04/27 10:03:12;;;;;;;8.02;1.60;;;15.20;64.40;;;;;;4996999;28;20415;-84
2021/04/27 10:05:42;;;;;;;1.65;1.38;;;15.10;67.90;;;;;;4988744;28;20041;-82
2021/04/27 10:08:11;;;;;;;1.75;1.30;;;15.20;69.90;;;;;;4990314;28;20019;-83
2021/04/27 10:10:37;;;;;;;2.00;1.42;;;15.10;64.80;;;;;;4992032;28;20026;-82
2021/04/27 10:13:05;;;;;;;4.75;1.52;;;15.20;67.50;;;;;;4994054;28;20065;-82
2021/04/27 10:15:31;;;;;;;7.18;1.73;;;15.40;71.60;;;;;;5000805;28;20026;-84
2021/04/27 10:18:00;;;;;;;2.70;1.48;;;15.50;64.70;;;;;;4996062;28;20503;-85
2021/04/27 10:20:26;;;;;;;4.15;1.80;;;15.50;58.20;;;;;;4988974;28;20089;-83
2021/04/27 10:22:52;;;;;;;3.47;1.85;;;15.40;60.00;;;;;;5003749;28;20033;-84
2021/04/27 10:25:23;;;;;;;4.00;1.50;;;15.70;67.10;;;;;;5012853;28;20513;-88
2021/04/27 10:28:06;;;;;;;3.10;1.45;;;16.20;64.30;;;;;;5032167;28;20393;-87
2021/04/27 10:30:35;;;;;;;1.88;1.33;;;16.30;59.20;;;;;;5023275;28;20060;-86
2021/04/27 10:33:03;;;;;;;7.88;1.60;;;16.20;56.10;;;;;;5012333;28;20045;-86
2021/04/27 10:35:32;;;;;;;3.13;1.65;;;15.50;55.40;;;;;;5010834;28;20022;-85
2021/04/27 10:38:04;;;;;;;3.83;1.27;;;15.00;58.10;;;;;;5011072;28;20152;-89
2021/04/27 10:40:48;;;;;;;7.60;1.45;;;15.20;65.70;;;;;;5011049;28;20026;-87
2021/04/27 10:43:34;;;;;;;3.55;1.20;;;15.90;62.60;;;;;;5012054;28;20075;-86
2021/04/27 10:46:02;;;;;;;5.43;1.88;;;16.00;58.80;;;;;;5020921;28;20450;-82
2021/04/27 10:48:33;;;;;;;6.10;1.73;;;16.00;59.30;;;;;;5030107;28;20136;-82
2021/04/27 10:51:19;;;;;;;8.73;2.42;;;16.10;59.20;;;;;;5031573;28;20090;-84
2021/04/27 10:54:02;;;;;;;5.80;2.35;;;16.40;56.20;;;;;;5030915;28;20025;-83
2021/04/27 10:56:39;;;;;;;3.17;1.35;;;16.50;59.10;;;;;;5019480;28;20512;-84
2021/04/27 10:59:29;;;;;;;4.82;1.90;;;16.90;59.00;;;;;;5010645;28;20120;-83
2021/04/27 11:02:20;;;;;;;4.60;1.55;;;16.80;55.80;;;;;;5029865;28;20039;-84
2021/04/27 11:04:51;;;;;;;6.32;1.70;;;16.20;54.50;;;;;;5029808;28;20044;-83
2021/04/27 11:07:20;;;;;;;2.22;1.50;;;16.40;60.10;;;;;;5015215;28;20112;-83
2021/04/27 11:10:01;;;;;;;5.47;1.23;;;16.70;55.70;;;;;;5011475;28;20026;-85
2021/04/27 11:12:36;;;;;;;2.47;1.25;;;16.90;54.90;;;;;;5011862;28;20030;-85
2021/04/27 11:15:07;;;;;;;2.25;1.40;;;17.00;54.80;;;;;;5009989;28;20026;-84
2021/04/27 11:17:37;;;;;;;1.92;1.20;;;17.30;54.80;;;;;;5011384;28;20026;-85
2021/04/27 11:20:05;;;;;;;4.07;1.77;;;17.50;55.90;;;;;;5011630;28;20088;-87
2021/04/27 11:22:33;;;;;;;2.22;1.40;;;17.40;51.00;;;;;;5010490;28;20033;-82
2021/04/27 11:25:02;;;;;;;5.18;1.40;;;17.40;51.80;;;;;;5010776;28;20030;-81
2021/04/27 11:27:38;;;;;;;7.80;2.00;;;17.10;53.90;;;;;;5013958;28;20397;-80
2021/04/27 11:30:12;;;;;;;4.32;1.77;;;17.00;55.00;;;;;;5027608;28;20029;-81
2021/04/27 11:32:44;;;;;;;12.65;1.88;;;16.60;53.70;;;;;;5011217;28;20029;-83
2021/04/27 11:35:18;;;;;;;5.80;1.58;;;16.80;56.50;;;;;;4991367;28;20050;-83
2021/04/27 11:37:50;;;;;;;11.88;1.40;;;17.10;57.60;;;;;;4992183;28;20031;-79
2021/04/27 11:40:27;;;;;;;6.63;1.60;;;17.50;55.60;;;;;;4991876;28;20093;-82
2021/04/27 11:42:54;;;;;;;1.75;1.27;;;17.70;54.40;;;;;;4991843;28;20398;-82
2021/04/27 11:45:21;;;;;;;4.20;1.92;;;18.00;52.60;;;;;;5015753;28;20061;-80
2021/04/27 11:47:47;;;;;;;3.60;1.65;;;18.40;54.80;;;;;;5029600;28;20033;-82
2021/04/27 11:50:30;;;;;;;4.97;1.83;;;17.50;50.30;;;;;;5029597;28;20107;-82
2021/04/27 11:53:07;;;;;;;2.67;1.83;;;17.00;52.10;;;;;;5031112;28;20018;-81
2021/04/27 11:55:36;;;;;;;3.40;1.73;;;16.90;55.80;;;;;;5012489;28;20030;-81
2021/04/27 11:58:23;;;;;;;8.77;1.40;;;17.40;58.30;;;;;;5030892;28;20045;-81
2021/04/27 12:00:56;;;;;;;6.80;1.92;;;18.00;54.70;;;;;;5024545;28;20034;-79
2021/04/27 12:03:34;;;;;;;7.82;2.40;;;18.90;53.60;;;;;;5015290;28;20068;-81
2021/04/27 12:06:05;;;;;;;16.17;2.45;;;19.60;52.10;;;;;;4993522;28;20065;-81
2021/04/27 12:08:33;;;;;;;3.35;1.70;;;19.30;45.20;;;;;;4995265;28;20057;-82
2021/04/27 12:11:20;;;;;;;2.30;1.55;;;19.30;46.90;;;;;;5008511;28;20034;-83
2021/04/27 12:14:10;;;;;;;4.72;1.40;;;19.40;49.40;;;;;;5013786;28;20486;-83
2021/04/27 12:16:38;;;;;;;4.95;1.67;;;20.00;47.90;;;;;;5009265;28;20437;-86
2021/04/27 12:19:12;;;;;;;11.13;2.33;;;20.40;47.40;;;;;;5014653;28;20033;-83
2021/04/27 12:21:41;;;;;;;9.02;1.92;;;20.60;45.30;;;;;;5014698;28;20026;-86
2021/04/27 12:24:19;;;;;;;2.88;1.83;;;21.10;44.30;;;;;;5014193;28;20030;-84
2021/04/27 12:27:25;;;;;;;8.20;2.13;;;21.30;43.90;;;;;;5013208;28;20076;-86
2021/04/27 12:30:11;;;;;;;7.97;1.88;;;21.70;43.00;;;;;;5001813;28;20044;-85
2021/04/27 12:32:40;;;;;;;2.22;1.38;;;21.30;41.70;;;;;;5021175;28;20059;-85
2021/04/27 12:35:08;;;;;;;5.20;1.67;;;21.30;44.00;;;;;;5033265;28;20553;-86
2021/04/27 12:37:38;;;;;;;2.88;1.45;;;21.60;44.40;;;;;;5032894;28;20033;-84
2021/04/27 12:40:25;;;;;;;3.33;1.80;;;21.80;44.20;;;;;;5034389;28;20022;-84
2021/04/27 12:42:53;;;;;;;7.05;1.50;;;22.00;44.50;;;;;;4994604;28;20092;-83
2021/04/27 12:45:19;;;;;;;7.97;2.25;;;22.40;44.80;;;;;;4998354;28;20037;-85
2021/04/27 12:47:48;;;;;;;6.28;2.00;;;22.50;44.20;;;;;;5012796;28;20080;-85
2021/04/27 12:50:16;;;;;;;6.28;1.92;;;22.50;42.50;;;;;;5014133;28;20113;-84
2021/04/27 12:52:55;;;;;;;5.60;2.28;;;21.00;42.00;;;;;;5014645;28;20033;-84